createdAt,value
2019-02-26T00:02:03.480Z,90.80
2019-02-26T00:05:05.847Z,91.30
2019-02-26T00:08:08.195Z,91.70
2019-02-26T00:11:10.799Z,92.10
2019-02-26T00:14:15.540Z,92.40
2019-02-26T00:17:15.709Z,92.50
2019-02-26T00:20:17.677Z,92.50
2019-02-26T00:23:21.494Z,91.60
2019-02-26T00:26:22.441Z,91.60
2019-02-26T00:29:25.423Z,92.00
2019-02-26T00:32:26.147Z,92.80
2019-02-26T00:35:28.411Z,93.10
2019-02-26T00:38:30.726Z,93.10
2019-02-26T00:41:33.575Z,92.60
2019-02-26T00:44:37.123Z,93.00
2019-02-26T00:47:38.791Z,93.60
2019-02-26T00:50:39.865Z,93.70
2019-02-26T00:53:42.015Z,93.30
2019-02-26T00:56:44.238Z,92.90
2019-02-26T00:59:48.089Z,93.10
2019-02-26T01:02:48.747Z,93.60
2019-02-26T01:05:50.991Z,93.50
2019-02-26T01:08:53.203Z,93.60
2019-02-26T01:11:55.452Z,93.70
2019-02-26T01:14:57.791Z,93.90
2019-02-26T01:18:01.438Z,94.00
2019-02-26T01:21:04.245Z,94.60
2019-02-26T01:24:06.385Z,94.70
2019-02-26T01:27:07.114Z,94.70
2019-02-26T01:30:10.951Z,95.10
2019-02-26T01:33:13.174Z,95.50
2019-02-26T01:36:16.218Z,95.50
2019-02-26T01:39:19.185Z,95.10
2019-02-26T01:42:22.991Z,95.10
2019-02-26T01:45:24.260Z,94.80
2019-02-26T01:48:24.546Z,94.80
2019-02-26T01:51:28.553Z,94.90
2019-02-26T01:54:30.627Z,95.00
2019-02-26T01:57:31.311Z,95.20
2019-02-26T02:00:33.572Z,95.20
2019-02-26T02:03:35.847Z,95.10
2019-02-26T02:06:39.260Z,95.90
2019-02-26T02:09:40.419Z,95.90
2019-02-26T02:12:42.670Z,95.80
2019-02-26T02:15:46.515Z,95.80
2019-02-26T02:18:48.871Z,95.70
2019-02-26T02:21:51.147Z,96.00
2019-02-26T02:24:53.405Z,95.60
2019-02-26T02:27:55.059Z,95.80
2019-02-26T02:30:56.196Z,95.40
2019-02-26T02:33:58.412Z,95.50
2019-02-26T02:37:00.652Z,95.40
2019-02-26T02:40:03.103Z,95.30
2019-02-26T02:43:07.968Z,95.80
2019-02-26T02:46:07.559Z,95.50
2019-02-26T02:49:12.485Z,95.00
2019-02-26T02:52:12.098Z,95.40
2019-02-26T02:55:17.188Z,96.00
2019-02-26T02:58:18.270Z,96.40
2019-02-26T03:01:20.424Z,96.00
2019-02-26T03:04:29.203Z,95.50
2019-02-26T03:07:29.830Z,94.80
2019-02-26T03:10:34.608Z,94.30
2019-02-26T03:13:34.283Z,94.60
2019-02-26T03:16:36.537Z,95.00
2019-02-26T03:19:41.607Z,94.80
2019-02-26T03:22:43.149Z,95.20
2019-02-26T03:25:44.551Z,94.50
2019-02-26T03:28:48.157Z,93.70
2019-02-26T03:31:54.646Z,93.80
2019-02-26T03:34:50.093Z,94.90
2019-02-26T03:37:54.885Z,94.90
2019-02-26T03:40:55.523Z,95.10
2019-02-26T03:43:58.538Z,95.40
2019-02-26T03:46:59.231Z,95.60
2019-02-26T03:50:01.500Z,95.50
2019-02-26T03:53:03.901Z,96.30
2019-02-26T03:56:08.197Z,96.00
2019-02-26T03:59:09.539Z,95.30
2019-02-26T04:02:11.901Z,95.80
2019-02-26T04:05:13.099Z,95.30
2019-02-26T04:08:16.631Z,94.70
2019-02-26T04:11:19.444Z,96.20
2019-02-26T04:14:20.680Z,96.10
2019-02-26T04:17:25.408Z,95.10
2019-02-26T04:20:26.895Z,95.90
2019-02-26T04:23:26.784Z,95.50
2019-02-26T04:27:42.122Z,95.00
2019-02-26T04:34:04.924Z,94.80
2019-02-26T04:39:18.773Z,94.80
2019-02-26T04:42:32.495Z,95.80
2019-02-26T04:47:46.657Z,96.00
2019-02-26T04:50:46.988Z,96.00
2019-02-26T04:53:51.788Z,96.50
2019-02-26T04:56:51.524Z,97.10
2019-02-26T04:59:55.641Z,97.10
2019-02-26T05:02:56.024Z,96.90
2019-02-26T05:06:00.155Z,96.60
2019-02-26T05:09:02.882Z,95.70
2019-02-26T05:12:02.763Z,95.50
2019-02-26T05:15:05.111Z,96.00
2019-02-26T05:18:07.343Z,95.70
2019-02-26T05:21:10.866Z,95.10
2019-02-26T05:24:13.060Z,96.60
2019-02-26T05:27:16.456Z,96.60
2019-02-26T05:30:21.087Z,95.80
2019-02-26T05:33:21.725Z,95.60
2019-02-26T05:36:21.894Z,95.30
2019-02-26T05:39:26.188Z,96.20
2019-02-26T05:42:26.410Z,96.30
2019-02-26T05:45:29.902Z,96.30
2019-02-26T05:48:30.955Z,96.80
2019-02-26T05:51:35.464Z,96.50
2019-02-26T05:54:35.482Z,95.80
2019-02-26T05:57:37.724Z,95.90
2019-02-26T06:00:39.957Z,97.30
2019-02-26T06:03:44.275Z,98.30
2019-02-26T06:06:44.489Z,98.00
2019-02-26T06:09:48.340Z,97.70
2019-02-26T06:12:48.945Z,97.30
2019-02-26T06:15:52.099Z,97.10
2019-02-26T06:18:54.465Z,96.90
2019-02-26T06:21:56.655Z,96.10
2019-02-26T06:25:00.271Z,96.60
2019-02-26T06:28:04.522Z,96.70
2019-02-26T06:31:02.539Z,96.90
2019-02-26T06:34:06.449Z,97.10
2019-02-26T06:37:16.379Z,96.50
2019-02-26T06:40:16.466Z,96.40
2019-02-26T06:43:18.763Z,96.90
2019-02-26T06:46:21.001Z,97.40
2019-02-26T06:49:24.602Z,98.10
2019-02-26T06:52:25.463Z,98.80
2019-02-26T06:55:27.675Z,99.10
2019-02-26T06:58:29.908Z,98.90
2019-02-26T07:01:32.789Z,98.70
2019-02-26T07:04:34.532Z,98.20
2019-02-26T07:07:37.086Z,97.90
2019-02-26T07:10:39.411Z,99.50
2019-02-26T07:15:12.146Z,99.90
2019-02-26T07:18:16.923Z,99.90
2019-02-26T07:21:15.785Z,99.90
2019-02-26T07:24:19.963Z,99.90
2019-02-26T07:27:20.315Z,99.90
2019-02-26T07:30:22.813Z,99.90
2019-02-26T07:33:27.386Z,99.90
2019-02-26T07:36:30.804Z,99.90
2019-02-26T07:39:33.235Z,99.90
2019-02-26T07:42:37.381Z,99.80
2019-02-26T07:45:37.711Z,99.90
2019-02-26T07:48:39.949Z,99.90
2019-02-26T07:51:43.029Z,99.90
2019-02-26T07:54:45.497Z,99.80
2019-02-26T07:57:48.955Z,99.90
2019-02-26T08:00:49.815Z,99.70
2019-02-26T08:03:53.225Z,99.60
2019-02-26T08:06:55.004Z,99.40
2019-02-26T08:09:55.784Z,99.60
2019-02-26T08:12:59.240Z,99.80
2019-02-26T08:16:02.322Z,99.80
2019-02-26T08:19:02.537Z,99.70
2019-02-26T08:22:04.742Z,99.90
2019-02-26T08:25:07.099Z,99.90
2019-02-26T08:28:09.332Z,99.90
2019-02-26T08:31:15.410Z,99.90
2019-02-26T08:34:15.744Z,99.40
2019-02-26T08:37:16.210Z,98.80
2019-02-26T08:40:18.491Z,98.50
2019-02-26T08:43:21.059Z,98.00
2019-02-26T08:46:23.399Z,96.80
2019-02-26T08:49:25.693Z,96.30
2019-02-26T08:52:29.399Z,95.50
2019-02-26T08:55:30.407Z,94.70
2019-02-26T08:58:32.780Z,94.40
2019-02-26T09:01:35.132Z,94.40
2019-02-26T09:04:38.383Z,93.70
2019-02-26T09:07:40.408Z,92.80
2019-02-26T09:10:43.732Z,92.00
2019-02-26T09:13:44.556Z,91.50
2019-02-26T09:16:49.815Z,91.40
2019-02-26T09:19:50.912Z,91.20
2019-02-26T09:22:54.326Z,90.70
2019-02-26T09:25:54.883Z,90.50
2019-02-26T09:28:57.184Z,90.00
2019-02-26T09:31:58.460Z,89.40
2019-02-26T09:35:02.318Z,88.60
2019-02-26T09:38:02.938Z,88.50
2019-02-26T09:41:05.160Z,88.20
2019-02-26T09:44:09.641Z,88.20
2019-02-26T09:47:09.693Z,86.80
2019-02-26T09:50:12.858Z,86.40
2019-02-26T09:53:14.271Z,86.20
2019-02-26T09:56:16.543Z,85.80
2019-02-26T09:59:18.795Z,84.20
2019-02-26T10:02:21.938Z,83.60
2019-02-26T10:05:23.357Z,82.30
2019-02-26T10:08:28.110Z,81.30
2019-02-26T10:11:28.092Z,81.30
2019-02-26T10:14:31.018Z,81.00
2019-02-26T10:17:34.760Z,80.30
2019-02-26T10:20:34.807Z,79.90
2019-02-26T10:23:37.107Z,79.20
2019-02-26T10:26:41.088Z,78.40
2019-02-26T10:29:44.858Z,77.50
2019-02-26T10:32:46.259Z,77.50
2019-02-26T10:35:47.982Z,77.10
2019-02-26T10:38:50.436Z,76.60
2019-02-26T10:41:50.948Z,75.70
2019-02-26T10:44:53.219Z,75.20
2019-02-26T10:47:56.694Z,74.40
2019-02-26T10:50:57.871Z,74.40
2019-02-26T10:54:02.592Z,73.40
2019-02-26T10:57:06.460Z,72.70
2019-02-26T11:00:10.350Z,72.00
2019-02-26T11:03:12.083Z,71.10
2019-02-26T11:06:15.905Z,70.60
2019-02-26T11:09:18.024Z,70.50
2019-02-26T11:12:16.921Z,70.10
2019-02-26T11:15:21.473Z,69.90
2019-02-26T11:18:23.519Z,68.80
2019-02-26T11:21:23.800Z,66.00
2019-02-26T11:24:28.226Z,65.80
2019-02-26T11:27:28.437Z,66.40
2019-02-26T11:30:32.256Z,66.90
2019-02-26T11:33:33.486Z,65.40
2019-02-26T11:36:38.039Z,62.10
2019-02-26T11:39:38.001Z,61.30
2019-02-26T11:42:42.173Z,59.10
2019-02-26T11:45:44.426Z,59.00
2019-02-26T11:48:45.677Z,59.40
2019-02-26T11:51:47.280Z,60.50
2019-02-26T11:54:49.590Z,60.60
2019-02-26T11:57:51.854Z,60.90
2019-02-26T12:00:57.154Z,61.30
2019-02-26T12:04:03.200Z,60.20
2019-02-26T12:07:03.640Z,59.60
2019-02-26T12:10:09.293Z,58.70
2019-02-26T12:13:06.303Z,58.20
2019-02-26T12:16:08.547Z,57.90
2019-02-26T12:19:10.915Z,57.20
2019-02-26T12:22:13.188Z,57.40
2019-02-26T12:25:15.627Z,57.30
2019-02-26T12:28:17.759Z,56.50
2019-02-26T12:31:20.055Z,55.90
2019-02-26T12:34:23.615Z,55.60
2019-02-26T12:37:24.628Z,56.10
2019-02-26T12:40:26.962Z,56.60
2019-02-26T12:43:30.191Z,57.10
2019-02-26T12:46:33.729Z,56.00
2019-02-26T12:49:36.543Z,55.80
2019-02-26T12:52:36.468Z,54.70
2019-02-26T12:55:42.088Z,52.60
2019-02-26T12:58:43.906Z,51.80
2019-02-26T13:01:46.234Z,51.80
2019-02-26T13:04:48.020Z,52.00
2019-02-26T13:07:48.727Z,51.70
2019-02-26T13:10:55.474Z,50.40
2019-02-26T13:13:53.718Z,49.40
2019-02-26T13:19:58.904Z,48.70
2019-02-26T13:23:16.452Z,47.80
2019-02-26T13:26:03.859Z,48.40
2019-02-26T13:29:04.980Z,49.00
2019-02-26T13:32:09.024Z,50.00
2019-02-26T13:35:09.688Z,50.30
2019-02-26T13:38:12.231Z,50.70
2019-02-26T13:41:28.715Z,50.40
2019-02-26T13:44:16.847Z,51.00
2019-02-26T13:47:19.187Z,51.60
2019-02-26T13:50:23.655Z,50.80
2019-02-26T13:53:25.986Z,51.00
2019-02-26T13:56:28.243Z,51.80
2019-02-26T13:59:30.584Z,52.10
2019-02-26T14:02:32.902Z,51.00
2019-02-26T14:05:38.166Z,52.20
2019-02-26T14:08:37.464Z,52.70
2019-02-26T14:11:39.803Z,52.60
2019-02-26T14:14:42.144Z,52.60
2019-02-26T14:17:44.453Z,51.90
2019-02-26T14:20:46.712Z,51.60
2019-02-26T14:23:49.028Z,50.80
2019-02-26T14:26:51.310Z,50.60
2019-02-26T14:29:53.567Z,51.10
2019-02-26T14:32:55.864Z,51.90
2019-02-26T14:35:58.199Z,52.20
2019-02-26T14:39:00.508Z,52.40
2019-02-26T14:42:02.799Z,52.80
2019-02-26T14:45:06.611Z,52.70
2019-02-26T14:48:08.921Z,53.00
2019-02-26T14:51:13.711Z,53.30
2019-02-26T14:54:15.993Z,53.70
2019-02-26T14:57:18.258Z,54.00
2019-02-26T15:00:22.865Z,54.00
2019-02-26T15:03:25.171Z,54.60
2019-02-26T15:06:27.440Z,55.20
2019-02-26T15:09:29.708Z,54.90
2019-02-26T15:12:31.948Z,55.10
2019-02-26T15:15:34.241Z,55.30
2019-02-26T15:18:36.581Z,55.40
2019-02-26T15:21:38.893Z,55.60
2019-02-26T15:24:41.192Z,56.30
2019-02-26T15:27:43.498Z,56.30
2019-02-26T15:30:45.788Z,56.10
2019-02-26T15:33:48.025Z,56.50
2019-02-26T15:36:50.299Z,56.90
2019-02-26T15:39:52.546Z,56.50
2019-02-26T15:42:56.449Z,56.00
2019-02-26T15:45:59.766Z,56.20
2019-02-26T15:49:00.621Z,55.10
2019-02-26T15:52:02.964Z,55.40
2019-02-26T15:55:06.847Z,55.30
2019-02-26T15:58:09.117Z,55.00
2019-02-26T16:01:12.854Z,54.90
2019-02-26T16:04:13.701Z,54.70
2019-02-26T16:07:15.932Z,54.40
2019-02-26T16:10:19.476Z,54.40
2019-02-26T16:13:20.633Z,54.30
2019-02-26T16:16:22.903Z,54.70
2019-02-26T16:19:25.175Z,54.20
2019-02-26T16:22:27.432Z,54.50
2019-02-26T16:25:29.659Z,54.90
2019-02-26T16:28:31.939Z,54.80
2019-02-26T16:31:34.207Z,55.10
2019-02-26T16:34:36.489Z,55.10
2019-02-26T16:37:41.449Z,55.50
2019-02-26T16:40:41.051Z,55.10
2019-02-26T16:43:43.313Z,55.10
2019-02-26T16:46:45.655Z,55.40
2019-02-26T16:49:47.907Z,55.80
2019-02-26T16:52:50.142Z,56.10
2019-02-26T16:55:52.471Z,56.40
2019-02-26T16:58:54.790Z,56.60
2019-02-26T17:01:57.111Z,56.90
2019-02-26T17:04:59.411Z,57.30
2019-02-26T17:08:03.084Z,57.40
2019-02-26T17:11:05.619Z,57.50
2019-02-26T17:14:07.959Z,57.50
2019-02-26T17:17:10.267Z,57.60
2019-02-26T17:20:12.585Z,57.80
2019-02-26T17:23:14.987Z,57.70
2019-02-26T17:26:17.289Z,57.70
2019-02-26T17:29:19.813Z,58.00
2019-02-26T17:32:21.883Z,58.30
2019-02-26T17:35:28.401Z,58.50
2019-02-26T17:38:26.664Z,58.70
2019-02-26T17:41:28.887Z,58.90
2019-02-26T17:44:31.156Z,59.10
2019-02-26T17:47:33.487Z,59.20
2019-02-26T17:50:35.752Z,59.30
2019-02-26T17:53:39.285Z,59.30
2019-02-26T17:56:40.295Z,59.40
2019-02-26T17:59:42.600Z,59.60
2019-02-26T18:02:44.881Z,59.80
2019-02-26T18:05:51.170Z,59.80
2019-02-26T18:08:49.698Z,59.80
2019-02-26T18:11:52.899Z,59.80
2019-02-26T18:14:56.163Z,59.90
2019-02-26T18:17:57.427Z,59.90
2019-02-26T18:20:59.642Z,60.00
2019-02-26T18:24:01.885Z,60.20
2019-02-26T18:27:04.133Z,60.30
2019-02-26T18:30:08.655Z,60.60
2019-02-26T18:33:10.874Z,61.00
2019-02-26T18:36:13.222Z,60.90
2019-02-26T18:39:15.402Z,61.10
2019-02-26T18:42:17.648Z,62.10
2019-02-26T18:45:21.782Z,61.50
2019-02-26T18:48:24.070Z,61.60
2019-02-26T18:51:26.339Z,61.80
2019-02-26T18:54:28.580Z,61.90
2019-02-26T18:57:30.813Z,62.10
2019-02-26T19:00:33.930Z,62.30
2019-02-26T19:03:36.194Z,62.50
2019-02-26T19:06:38.429Z,62.80
2019-02-26T19:09:42.687Z,62.90
2019-02-26T19:12:57.527Z,63.10
2019-02-26T19:15:59.783Z,63.40
2019-02-26T19:19:02.390Z,63.70
2019-02-26T19:22:04.679Z,63.90
2019-02-26T19:25:09.246Z,64.30
2019-02-26T19:28:09.899Z,64.40
2019-02-26T19:31:11.567Z,64.60
2019-02-26T19:34:13.785Z,64.80
2019-02-26T19:37:16.715Z,65.10
2019-02-26T19:40:19.728Z,65.20
2019-02-26T19:43:23.795Z,65.40
2019-02-26T19:46:24.619Z,65.50
2019-02-26T19:49:26.862Z,65.60
2019-02-26T19:52:29.113Z,65.70
2019-02-26T19:55:32.904Z,65.70
2019-02-26T19:58:35.127Z,65.90
2019-02-26T20:01:37.325Z,67.20
2019-02-26T20:04:39.603Z,67.30
2019-02-26T20:07:41.884Z,67.40
2019-02-26T20:10:47.721Z,67.60
2019-02-26T20:13:46.446Z,67.90
2019-02-26T20:16:48.694Z,68.00
2019-02-26T20:19:50.945Z,68.10
2019-02-26T20:22:53.207Z,68.50
2019-02-26T20:25:55.451Z,68.60
2019-02-26T20:28:57.671Z,68.70
2019-02-26T20:31:59.966Z,68.90
2019-02-26T20:35:02.235Z,68.90
2019-02-26T20:38:04.518Z,69.30
2019-02-26T20:41:06.792Z,69.60
2019-02-26T20:44:10.062Z,69.80
2019-02-26T20:47:11.263Z,70.10
2019-02-26T20:50:13.559Z,70.30
2019-02-26T20:53:15.793Z,70.40
2019-02-26T20:56:18.058Z,70.40
2019-02-26T21:00:25.268Z,70.40
2019-02-26T21:03:25.457Z,70.50
2019-02-26T21:06:27.544Z,70.60
2019-02-26T21:09:29.787Z,71.00
2019-02-26T21:12:32.059Z,70.90
2019-02-26T21:15:34.283Z,71.00
2019-02-26T21:18:36.597Z,71.10
2019-02-26T21:21:38.871Z,71.20
2019-02-26T21:24:41.112Z,71.30
2019-02-26T21:27:43.389Z,71.30
2019-02-26T21:30:46.371Z,71.30
2019-02-26T21:33:47.914Z,71.30
2019-02-26T21:36:50.134Z,71.30
2019-02-26T21:39:52.360Z,71.40
2019-02-26T21:42:54.611Z,71.40
2019-02-26T21:45:56.871Z,71.40
2019-02-26T21:48:59.138Z,71.60
2019-02-26T21:52:01.343Z,71.60
2019-02-26T21:55:03.707Z,71.70
2019-02-26T21:58:05.919Z,71.80
2019-02-26T22:01:11.441Z,71.90
2019-02-26T22:04:10.414Z,71.90
2019-02-26T22:07:12.695Z,72.10
2019-02-26T22:10:14.967Z,72.20
2019-02-26T22:13:17.711Z,72.10
2019-02-26T22:16:19.473Z,72.10
2019-02-26T22:19:21.704Z,72.20
2019-02-26T22:22:25.988Z,72.10
2019-02-26T22:25:26.247Z,72.10
2019-02-26T22:28:28.483Z,72.30
2019-02-26T22:31:30.719Z,72.40
2019-02-26T22:34:32.993Z,72.50
2019-02-26T22:37:35.283Z,72.60
2019-02-26T22:40:37.559Z,72.70
2019-02-26T22:43:39.815Z,72.60
2019-02-26T22:46:42.127Z,72.60
2019-02-26T22:49:44.389Z,72.70
2019-02-26T22:52:46.664Z,72.90
2019-02-26T22:55:49.930Z,72.80
2019-02-26T22:58:51.255Z,72.60
2019-02-26T23:01:53.910Z,72.40
2019-02-26T23:04:56.126Z,72.60
2019-02-26T23:07:58.375Z,72.50
2019-02-26T23:11:00.715Z,72.70
2019-02-26T23:14:05.022Z,72.90
2019-02-26T23:17:05.583Z,73.00
2019-02-26T23:20:09.901Z,73.40
2019-02-26T23:23:10.319Z,73.50
2019-02-26T23:26:12.559Z,73.60
2019-02-26T23:29:14.813Z,73.80
2019-02-26T23:32:17.119Z,73.90
2019-02-26T23:35:19.339Z,74.20
2019-02-26T23:38:21.647Z,74.50
2019-02-26T23:41:23.874Z,74.70
2019-02-26T23:44:26.135Z,74.90
2019-02-26T23:47:28.435Z,74.90
2019-02-26T23:50:30.662Z,75.10
2019-02-26T23:53:34.158Z,75.10
2019-02-26T23:56:35.683Z,75.20
2019-02-26T23:59:38.247Z,75.20
